Portada
METAR-TAF:

METAR-TAF

Aeroports :

Salvador, Bahia, Brasil

latitud: 12-54S, longitud: 038-20W, altitud: 6 m

Observació

L'informe es va fer fa 53 minuts, a les 18:00 UTC
Vent 11 kt del Est
Temperatura 29°C
Humitat 66%
Pressió 1012 hPa
Visibilitat 10 km o més
Escasses núvols a una alçada de 2000 ft

METAR: SBSV 211800Z 10011KT 9999 FEW020 29/22 Q1012

Hora: 15:53 (18:53 UTC)

Pronòstic

L'informe es va fer fa 2 hores i 53 minuts, a les 16:00 UTC
Pronòstic vàlid del 21 a les 18 UTC al 22 a les 18 UTC
Vent 10 kt del Est
Visibilitat 10 km o més
Núvols disperses a una alçada de 2000 ft
Evolucionant progressivament
l' 22 a les 06 UTC al 22 a les 08 UTC
Vent 5 kt del Est/Nord-Est
Evolucionant progressivament
l' 22 a les 11 UTC al 22 a les 13 UTC
Vent 10 kt del Est

TAF: SBSV 211600Z 2118/2218 09010KT 9999 SCT020 TN26/2205Z TX30/2215Z BECMG 2206/2208 06005KT BECMG 2211/2213 09010KT RMK PEH

Observacions i pronòstics meteorològics de més de 4000 aeroports (METAR i TAF).

Les estacions disponibles són els punts grocs i vermells al mapa.

Posi el ratolí al punt desitjat per veure el nom de l'estació.

Feu clic per veure les observacions i els pronòstics meteorològics.

Per canviar el mapa: feu clic els botons verds amb una creu de color negre per apropar; al botó verd amb un guió per allunyar la imatge; o en les fletxes verdes per a mapes adjacents.


METAR-TAF: